Time;durP1;ratioP1;P1;durP2;ratioP2;P2;SDS_P1;SDS_P2;PMS_P1;PMS_P2;Temp;Humidity;BMP_temperature;BMP_pressure;BME280_temperature;BME280_humidity;BME280_pressure;Samples;Min_cycle;Max_cycle;Signal;HPM_P1;HPM_P2
2023/01/20 00:01:13;;;;;;;0.30;0.30;;;-0.40;99.90;;;;;;5075174;28;20453;-83
2023/01/20 00:03:43;;;;;;;0.30;0.30;;;-0.40;99.90;;;;;;5075451;28;20405;-83
2023/01/20 00:06:10;;;;;;;0.50;0.50;;;-0.30;99.90;;;;;;5074897;28;20448;-83
2023/01/20 00:08:36;;;;;;;0.30;0.30;;;-0.30;99.90;;;;;;5075100;28;20438;-82
2023/01/20 00:11:07;;;;;;;0.40;0.40;;;-0.30;99.90;;;;;;5075036;28;20461;-82
2023/01/20 00:13:34;;;;;;;0.40;0.40;;;-0.30;99.90;;;;;;5074965;28;20481;-82
2023/01/20 00:16:02;;;;;;;0.30;0.30;;;-0.30;99.90;;;;;;5074528;28;20496;-82
2023/01/20 00:18:29;;;;;;;0.53;0.53;;;-0.20;99.90;;;;;;5074878;28;20449;-82
2023/01/20 00:21:02;;;;;;;0.80;0.70;;;-0.20;99.90;;;;;;5074866;28;20458;-82
2023/01/20 00:23:29;;;;;;;0.40;0.37;;;-0.10;99.90;;;;;;5074898;28;20433;-82
2023/01/20 00:25:55;;;;;;;0.30;0.30;;;-0.10;99.90;;;;;;5074886;28;20476;-82
2023/01/20 00:28:22;;;;;;;0.40;0.40;;;-0.10;99.90;;;;;;5074721;28;20817;-82
2023/01/20 00:30:49;;;;;;;0.40;0.40;;;-0.10;99.90;;;;;;5074629;28;20441;-82
2023/01/20 00:33:15;;;;;;;0.50;0.50;;;-0.10;99.90;;;;;;5074511;28;20826;-82
2023/01/20 00:35:42;;;;;;;1.20;0.77;;;-0.10;99.90;;;;;;5074451;28;20469;-82
2023/01/20 00:38:10;;;;;;;0.63;0.63;;;0.00;99.90;;;;;;5074505;28;20446;-82
2023/01/20 00:40:37;;;;;;;0.30;0.30;;;0.00;99.90;;;;;;5077509;28;20448;-83
2023/01/20 00:43:03;;;;;;;0.53;0.50;;;0.00;99.90;;;;;;5074845;28;20430;-82
2023/01/20 00:45:30;;;;;;;0.70;0.70;;;0.00;99.90;;;;;;5073788;28;20824;-83
2023/01/20 00:47:57;;;;;;;2.83;1.17;;;0.00;99.90;;;;;;5074483;28;20453;-83
2023/01/20 00:50:23;;;;;;;2.87;1.20;;;0.00;99.90;;;;;;5074328;28;20460;-83
2023/01/20 00:52:50;;;;;;;0.40;0.40;;;0.00;99.90;;;;;;5073913;28;20789;-82
2023/01/20 00:55:18;;;;;;;1.57;1.47;;;0.10;99.90;;;;;;5074009;28;20496;-82
2023/01/20 00:57:45;;;;;;;0.57;0.57;;;0.10;99.90;;;;;;5074129;28;20445;-83
2023/01/20 01:00:12;;;;;;;0.33;0.33;;;0.10;99.90;;;;;;5073879;28;20460;-83
2023/01/20 01:02:39;;;;;;;2.10;0.70;;;0.10;99.90;;;;;;5073818;28;20944;-83
2023/01/20 01:05:06;;;;;;;0.90;0.70;;;0.00;99.90;;;;;;5073995;28;20454;-82
2023/01/20 01:07:33;;;;;;;1.23;0.90;;;0.00;99.90;;;;;;5074018;28;20458;-82
2023/01/20 01:10:00;;;;;;;0.40;0.40;;;0.00;99.90;;;;;;5074020;28;20503;-82
2023/01/20 01:12:28;;;;;;;0.63;0.63;;;0.00;99.90;;;;;;5073853;28;20453;-82
2023/01/20 01:14:55;;;;;;;0.40;0.40;;;0.00;99.90;;;;;;5073555;28;20862;-83
2023/01/20 01:17:22;;;;;;;0.40;0.40;;;0.00;99.90;;;;;;5073497;28;20430;-82
2023/01/20 01:19:49;;;;;;;0.47;0.47;;;0.00;99.90;;;;;;5073794;28;20936;-83
2023/01/20 01:22:16;;;;;;;0.30;0.30;;;0.00;99.90;;;;;;5073723;28;20449;-83
2023/01/20 01:24:43;;;;;;;0.93;0.73;;;0.10;99.90;;;;;;5073637;28;20465;-83
2023/01/20 01:27:10;;;;;;;0.57;0.57;;;0.10;99.90;;;;;;5073468;28;20445;-82
2023/01/20 01:29:38;;;;;;;0.40;0.40;;;0.10;99.90;;;;;;5073364;28;20420;-82
2023/01/20 01:32:06;;;;;;;0.30;0.30;;;0.00;99.90;;;;;;5073842;28;20428;-82
2023/01/20 01:34:32;;;;;;;1.00;0.53;;;0.10;99.90;;;;;;5073561;28;20492;-82
2023/01/20 01:36:59;;;;;;;0.77;0.73;;;0.10;99.90;;;;;;5073199;28;20457;-82
2023/01/20 01:39:27;;;;;;;0.30;0.30;;;0.10;99.90;;;;;;5073621;28;20457;-82
2023/01/20 01:41:54;;;;;;;2.13;0.50;;;0.10;99.90;;;;;;5073536;28;20449;-82
2023/01/20 01:44:20;;;;;;;1.40;0.70;;;0.00;99.90;;;;;;5073440;28;20813;-82
2023/01/20 01:46:48;;;;;;;0.60;0.50;;;0.00;99.90;;;;;;5073136;28;20449;-82
2023/01/20 01:49:20;;;;;;;4.20;1.07;;;0.00;99.90;;;;;;5073491;28;20460;-83
2023/01/20 01:51:51;;;;;;;1.07;0.60;;;-0.10;99.90;;;;;;5073491;28;20421;-82
2023/01/20 01:54:23;;;;;;;0.60;0.50;;;-0.10;99.90;;;;;;5073223;28;20850;-83
2023/01/20 01:56:50;;;;;;;0.60;0.60;;;-0.10;99.90;;;;;;5072200;28;20918;-82
2023/01/20 01:59:18;;;;;;;0.40;0.40;;;-0.20;99.90;;;;;;5073323;28;20813;-82
2023/01/20 02:01:48;;;;;;;0.70;0.70;;;-0.40;99.90;;;;;;5073303;28;20463;-82
2023/01/20 02:04:17;;;;;;;0.40;0.40;;;-0.40;99.90;;;;;;5072974;28;20850;-83
2023/01/20 02:06:46;;;;;;;0.53;0.53;;;-0.50;99.90;;;;;;5072943;28;20937;-82
2023/01/20 02:09:14;;;;;;;0.50;0.50;;;-0.50;99.90;;;;;;5073262;28;20437;-82
2023/01/20 02:11:47;;;;;;;0.40;0.40;;;-0.50;99.90;;;;;;5073241;28;20818;-82
2023/01/20 02:14:15;;;;;;;0.30;0.27;;;-0.50;99.90;;;;;;5072866;28;20935;-82
2023/01/20 02:16:51;;;;;;;0.30;0.30;;;-0.50;99.90;;;;;;5072840;28;20481;-82
2023/01/20 02:19:45;;;;;;;1.40;0.73;;;-0.40;99.90;;;;;;5073170;28;20430;-82
2023/01/20 02:22:25;;;;;;;0.30;0.30;;;-0.40;99.90;;;;;;5073238;28;20433;-82
2023/01/20 02:25:16;;;;;;;0.30;0.30;;;-0.40;99.90;;;;;;5073083;28;20489;-82
2023/01/20 02:28:07;;;;;;;0.50;0.50;;;-0.30;99.90;;;;;;5072779;28;20412;-82
2023/01/20 02:30:50;;;;;;;0.30;0.30;;;-0.30;99.90;;;;;;5039622;28;20453;-82
2023/01/20 02:33:25;;;;;;;0.40;0.40;;;-0.30;99.90;;;;;;5073358;28;20438;-82
2023/01/20 02:35:56;;;;;;;0.40;0.40;;;-0.30;99.90;;;;;;5072977;28;20493;-82
2023/01/20 02:38:30;;;;;;;1.67;0.77;;;-0.30;99.90;;;;;;5073024;28;20426;-82
2023/01/20 02:41:06;;;;;;;0.30;0.30;;;-0.30;99.90;;;;;;5073072;28;20430;-83
2023/01/20 02:43:36;;;;;;;0.30;0.23;;;-0.30;99.90;;;;;;5072662;28;20438;-83
2023/01/20 02:46:11;;;;;;;0.50;0.50;;;-0.20;99.90;;;;;;5072797;28;20476;-83
2023/01/20 02:48:43;;;;;;;0.40;0.40;;;-0.20;99.90;;;;;;5072936;28;20408;-82
2023/01/20 02:51:14;;;;;;;0.50;0.50;;;-0.20;99.90;;;;;;5072985;28;20483;-82
2023/01/20 02:53:47;;;;;;;0.43;0.43;;;-0.30;99.90;;;;;;5072452;28;20933;-82
2023/01/20 02:56:16;;;;;;;0.40;0.40;;;-0.30;99.90;;;;;;5073270;28;20450;-82
2023/01/20 02:58:48;;;;;;;6.37;2.00;;;-0.30;99.90;;;;;;5073172;28;20457;-82
2023/01/20 03:01:20;;;;;;;0.93;0.40;;;-0.30;99.90;;;;;;5072794;28;20438;-82
2023/01/20 03:03:54;;;;;;;0.30;0.30;;;-0.30;99.90;;;;;;5073767;28;20426;-83
2023/01/20 03:06:24;;;;;;;0.83;0.83;;;-0.30;99.90;;;;;;5072318;28;20984;-82
2023/01/20 03:08:53;;;;;;;0.30;0.30;;;-0.40;99.90;;;;;;5074428;28;20437;-82
2023/01/20 03:11:20;;;;;;;0.50;0.50;;;-0.40;99.90;;;;;;5076239;28;20427;-82
2023/01/20 03:13:50;;;;;;;0.30;0.30;;;-0.40;99.90;;;;;;5075827;28;20483;-82
2023/01/20 03:16:20;;;;;;;0.57;0.57;;;-0.40;99.90;;;;;;5075693;28;20894;-82
2023/01/20 03:18:49;;;;;;;0.30;0.30;;;-0.50;99.90;;;;;;5076304;28;20445;-82
2023/01/20 03:21:16;;;;;;;0.40;0.40;;;-0.50;99.90;;;;;;5075834;28;20975;-82
2023/01/20 03:23:46;;;;;;;0.37;0.37;;;-0.50;99.90;;;;;;5075950;28;20424;-82
2023/01/20 03:26:15;;;;;;;3.73;3.10;;;-0.40;99.90;;;;;;5076195;28;20468;-82
2023/01/20 03:28:43;;;;;;;0.97;0.50;;;-0.40;99.90;;;;;;5075541;28;20972;-82
2023/01/20 03:31:15;;;;;;;0.30;0.30;;;-0.40;99.90;;;;;;5075808;28;20445;-82
2023/01/20 03:33:43;;;;;;;0.40;0.40;;;-0.50;99.90;;;;;;5075811;28;20441;-83
2023/01/20 03:36:12;;;;;;;0.30;0.30;;;-0.50;99.90;;;;;;5075610;28;20455;-82
2023/01/20 03:38:39;;;;;;;0.90;0.50;;;-0.50;99.90;;;;;;5075696;28;20420;-82
2023/01/20 03:41:17;;;;;;;1.43;0.50;;;-0.40;99.90;;;;;;5075965;28;20453;-82
2023/01/20 03:43:48;;;;;;;0.50;0.40;;;-0.40;99.90;;;;;;5075673;28;20433;-82
2023/01/20 03:46:19;;;;;;;0.47;0.47;;;-0.30;99.90;;;;;;5075520;28;20462;-82
2023/01/20 03:48:52;;;;;;;0.30;0.20;;;-0.30;99.90;;;;;;5075580;28;20445;-83
2023/01/20 03:51:27;;;;;;;0.50;0.50;;;-0.30;99.90;;;;;;5075525;28;20524;-82
2023/01/20 03:53:59;;;;;;;1.60;1.60;;;-0.30;99.90;;;;;;5075464;28;20425;-82
2023/01/20 03:56:31;;;;;;;0.40;0.30;;;-0.30;99.90;;;;;;5075380;28;20461;-83
2023/01/20 03:59:01;;;;;;;0.87;0.87;;;-0.20;99.90;;;;;;5075433;28;20437;-82
2023/01/20 04:01:33;;;;;;;0.73;0.73;;;-0.20;99.90;;;;;;5075994;28;20462;-82
2023/01/20 04:04:02;;;;;;;0.67;0.60;;;-0.20;99.90;;;;;;5075909;28;20417;-82
2023/01/20 04:06:33;;;;;;;0.60;0.53;;;-0.20;99.90;;;;;;5076874;28;20461;-82
2023/01/20 04:09:04;;;;;;;0.90;0.90;;;-0.20;99.90;;;;;;5076868;28;20425;-82
2023/01/20 04:11:30;;;;;;;0.57;0.57;;;-0.20;99.90;;;;;;5076082;28;20430;-82
2023/01/20 04:13:57;;;;;;;0.50;0.50;;;-0.20;99.90;;;;;;5075311;28;20437;-82
2023/01/20 04:16:25;;;;;;;0.30;0.30;;;-0.10;99.90;;;;;;5074658;28;20493;-82
2023/01/20 04:18:53;;;;;;;0.30;0.30;;;-0.20;99.90;;;;;;5074856;28;20438;-82
2023/01/20 04:21:28;;;;;;;1.40;0.80;;;-0.20;99.90;;;;;;5074034;28;20838;-82
2023/01/20 04:24:02;;;;;;;0.30;0.30;;;-0.20;99.90;;;;;;5075277;28;20442;-82
2023/01/20 04:26:28;;;;;;;0.30;0.30;;;-0.20;99.90;;;;;;5074734;28;20465;-82
2023/01/20 04:28:55;;;;;;;0.40;0.30;;;-0.10;99.90;;;;;;5074717;28;20441;-82
2023/01/20 04:31:22;;;;;;;0.40;0.40;;;-0.20;99.90;;;;;;5074781;28;20446;-82
2023/01/20 04:33:48;;;;;;;0.40;0.40;;;-0.20;99.90;;;;;;5074553;28;20453;-82
2023/01/20 04:36:15;;;;;;;0.30;0.30;;;-0.20;99.90;;;;;;5074483;28;20854;-82
2023/01/20 04:38:42;;;;;;;0.30;0.30;;;-0.20;99.90;;;;;;5074585;28;20457;-82
2023/01/20 04:41:11;;;;;;;0.33;0.30;;;-0.20;99.90;;;;;;5074758;28;20450;-82
2023/01/20 04:43:38;;;;;;;0.50;0.50;;;-0.30;99.90;;;;;;5074466;28;20465;-82
2023/01/20 04:46:05;;;;;;;0.30;0.30;;;-0.30;99.90;;;;;;5073994;28;21093;-82
2023/01/20 04:48:32;;;;;;;1.00;0.70;;;-0.30;99.90;;;;;;5074176;28;20802;-82
2023/01/20 04:50:58;;;;;;;0.60;0.60;;;-0.30;99.90;;;;;;5073991;28;20953;-83
2023/01/20 04:53:25;;;;;;;0.40;0.40;;;-0.30;99.90;;;;;;5074292;28;20446;-83
2023/01/20 04:55:52;;;;;;;0.30;0.30;;;-0.30;99.90;;;;;;5073774;28;20480;-82
2023/01/20 04:58:20;;;;;;;0.30;0.30;;;-0.30;99.90;;;;;;5074256;28;20453;-82
2023/01/20 05:00:47;;;;;;;0.30;0.30;;;-0.30;99.90;;;;;;5073792;28;20921;-82
2023/01/20 05:03:13;;;;;;;0.83;0.83;;;-0.20;99.90;;;;;;5074208;28;20461;-82
2023/01/20 05:05:40;;;;;;;0.30;0.30;;;-0.30;99.90;;;;;;5073831;28;20820;-82
2023/01/20 05:08:07;;;;;;;0.73;0.40;;;-0.20;99.90;;;;;;5074077;28;20420;-82
2023/01/20 05:10:34;;;;;;;0.30;0.30;;;-0.20;99.90;;;;;;5075452;28;20949;-82
2023/01/20 05:13:01;;;;;;;0.33;0.33;;;-0.20;99.90;;;;;;5074841;28;20458;-82
2023/01/20 05:15:29;;;;;;;0.43;0.43;;;-0.20;99.90;;;;;;5073556;28;20481;-82
2023/01/20 05:17:56;;;;;;;0.67;0.67;;;-0.20;99.90;;;;;;5073887;28;20435;-82
2023/01/20 05:20:22;;;;;;;0.30;0.27;;;-0.20;99.90;;;;;;5073850;28;20456;-82
2023/01/20 05:22:49;;;;;;;0.30;0.30;;;-0.30;99.90;;;;;;5073858;28;20453;-82
2023/01/20 05:25:31;;;;;;;0.97;0.40;;;-0.30;99.90;;;;;;5061817;28;20460;-82
2023/01/20 05:27:58;;;;;;;0.30;0.30;;;-0.30;99.90;;;;;;5073999;28;20416;-82
2023/01/20 05:30:25;;;;;;;0.30;0.30;;;-0.40;99.90;;;;;;5073407;28;20442;-82
2023/01/20 05:32:53;;;;;;;0.30;0.20;;;-0.30;99.90;;;;;;5073602;28;20441;-82
2023/01/20 05:35:20;;;;;;;0.30;0.20;;;-0.40;99.90;;;;;;5073490;28;20509;-82
2023/01/20 05:37:47;;;;;;;0.30;0.30;;;-0.40;99.90;;;;;;5073316;28;20449;-82
2023/01/20 05:40:14;;;;;;;0.30;0.30;;;-0.30;99.90;;;;;;5073617;28;20472;-82
2023/01/20 05:42:41;;;;;;;0.30;0.30;;;-0.30;99.90;;;;;;5073507;28;20810;-82
2023/01/20 05:45:08;;;;;;;0.30;0.30;;;-0.30;99.90;;;;;;5073428;28;20465;-82
2023/01/20 05:47:35;;;;;;;0.50;0.50;;;-0.30;99.90;;;;;;5073373;28;20473;-82
2023/01/20 05:50:03;;;;;;;0.33;0.33;;;-0.20;99.90;;;;;;5073498;28;20770;-82
2023/01/20 05:52:30;;;;;;;0.73;0.60;;;-0.20;99.90;;;;;;5073454;28;20457;-82
2023/01/20 05:54:57;;;;;;;0.30;0.30;;;-0.20;99.90;;;;;;5073319;28;20472;-82
2023/01/20 05:57:24;;;;;;;1.07;1.07;;;-0.20;99.90;;;;;;5073512;28;20446;-82
2023/01/20 05:59:51;;;;;;;0.30;0.30;;;-0.20;99.90;;;;;;5072903;28;20862;-83
2023/01/20 06:02:18;;;;;;;0.30;0.20;;;-0.30;99.90;;;;;;5073203;28;20441;-82
2023/01/20 06:04:45;;;;;;;0.30;0.30;;;-0.30;99.90;;;;;;5073064;28;20469;-82
2023/01/20 06:07:14;;;;;;;0.40;0.40;;;-0.30;99.90;;;;;;5073318;28;20445;-82
2023/01/20 06:09:41;;;;;;;2.50;1.27;;;-0.40;99.90;;;;;;5073031;28;20956;-82
2023/01/20 06:12:08;;;;;;;0.40;0.40;;;-0.40;99.90;;;;;;5073263;28;20454;-82
2023/01/20 06:14:35;;;;;;;0.33;0.33;;;-0.40;99.90;;;;;;5073188;28;20450;-82
2023/01/20 06:17:01;;;;;;;0.30;0.30;;;-0.40;99.90;;;;;;5072784;28;20488;-82
2023/01/20 06:19:28;;;;;;;0.30;0.20;;;-0.40;99.90;;;;;;5073198;28;20449;-82
2023/01/20 06:21:55;;;;;;;1.20;1.20;;;-0.40;99.90;;;;;;5073133;28;20445;-82
2023/01/20 06:24:23;;;;;;;0.30;0.30;;;-0.40;99.90;;;;;;5072770;28;20448;-82
2023/01/20 06:26:50;;;;;;;0.50;0.50;;;-0.40;99.90;;;;;;5073097;28;20441;-82
2023/01/20 06:29:17;;;;;;;0.90;0.67;;;-0.50;99.90;;;;;;5073106;28;20446;-82
2023/01/20 06:31:44;;;;;;;2.00;0.50;;;-0.60;99.90;;;;;;5073048;28;20488;-82
2023/01/20 06:34:11;;;;;;;0.37;0.37;;;-0.60;99.90;;;;;;5072676;28;20972;-82
2023/01/20 06:36:38;;;;;;;0.30;0.27;;;-0.70;99.90;;;;;;5072578;28;20481;-82
2023/01/20 06:39:05;;;;;;;0.33;0.33;;;-0.70;99.90;;;;;;5073147;28;20453;-82
2023/01/20 06:41:33;;;;;;;0.30;0.30;;;-0.80;99.90;;;;;;5073143;28;20457;-82
2023/01/20 06:44:00;;;;;;;0.30;0.30;;;-0.80;99.90;;;;;;5075439;28;20449;-82
2023/01/20 06:46:27;;;;;;;0.40;0.40;;;-0.90;99.90;;;;;;5076857;28;20488;-82
2023/01/20 06:48:59;;;;;;;0.40;0.37;;;-1.00;99.90;;;;;;5076451;28;20465;-82
2023/01/20 06:51:26;;;;;;;0.30;0.30;;;-1.10;99.90;;;;;;5076734;28;20478;-82
2023/01/20 06:53:53;;;;;;;0.60;0.60;;;-1.20;99.90;;;;;;5076340;28;20412;-82
2023/01/20 06:56:21;;;;;;;0.30;0.20;;;-1.20;99.90;;;;;;5076446;28;20508;-82
2023/01/20 06:58:49;;;;;;;0.60;0.40;;;-1.20;99.90;;;;;;5076524;28;20427;-82
2023/01/20 07:01:18;;;;;;;0.30;0.30;;;-1.30;99.90;;;;;;5076470;28;20480;-81
2023/01/20 07:03:45;;;;;;;1.53;0.70;;;-1.30;99.90;;;;;;5076127;28;20925;-82
2023/01/20 07:06:17;;;;;;;1.00;0.70;;;-1.30;99.90;;;;;;5076021;28;20843;-82
2023/01/20 07:08:44;;;;;;;0.30;0.30;;;-1.30;99.90;;;;;;5076336;28;20435;-82
2023/01/20 07:11:11;;;;;;;0.60;0.60;;;-1.30;99.90;;;;;;5076136;28;20452;-82
2023/01/20 07:13:38;;;;;;;0.30;0.30;;;-1.40;99.90;;;;;;5076225;28;20445;-82
2023/01/20 07:16:07;;;;;;;0.30;0.30;;;-1.40;99.90;;;;;;5075923;28;20520;-82
2023/01/20 07:18:34;;;;;;;0.30;0.30;;;-1.40;99.90;;;;;;5076240;28;20455;-82
2023/01/20 07:21:01;;;;;;;0.30;0.30;;;-1.50;99.90;;;;;;5076617;28;20453;-83
2023/01/20 07:23:30;;;;;;;0.70;0.50;;;-1.50;99.90;;;;;;5077736;28;20514;-82
2023/01/20 07:25:58;;;;;;;0.53;0.53;;;-1.50;99.90;;;;;;5077686;28;20440;-82
2023/01/20 07:28:25;;;;;;;0.50;0.40;;;-1.40;99.90;;;;;;5077114;28;20449;-83
2023/01/20 07:30:52;;;;;;;0.30;0.30;;;-1.50;99.90;;;;;;5076920;28;20449;-82
2023/01/20 07:33:20;;;;;;;1.37;1.37;;;-1.50;99.90;;;;;;5077185;28;20446;-82
2023/01/20 07:35:51;;;;;;;0.30;0.20;;;-1.50;99.90;;;;;;5077063;28;20838;-83
2023/01/20 07:38:18;;;;;;;0.30;0.30;;;-1.50;99.90;;;;;;5076853;28;20411;-83
2023/01/20 07:40:45;;;;;;;0.80;0.53;;;-1.40;99.90;;;;;;5077270;28;20977;-83
2023/01/20 07:43:12;;;;;;;0.30;0.20;;;-1.30;99.90;;;;;;5076936;28;20441;-82
2023/01/20 07:45:39;;;;;;;0.30;0.30;;;-1.30;99.90;;;;;;5076406;28;20458;-82
2023/01/20 07:48:06;;;;;;;0.30;0.30;;;-1.30;99.90;;;;;;5076654;28;20437;-82
2023/01/20 07:50:35;;;;;;;0.60;0.60;;;-1.20;99.90;;;;;;5078269;28;20480;-83
2023/01/20 07:53:02;;;;;;;0.50;0.50;;;-1.10;99.90;;;;;;5086385;28;20442;-82
2023/01/20 07:55:29;;;;;;;0.30;0.30;;;-1.10;99.90;;;;;;5096640;28;20987;-81
2023/01/20 07:57:56;;;;;;;2.30;0.53;;;-0.90;99.90;;;;;;5098912;28;20449;-81
2023/01/20 08:00:23;;;;;;;0.30;0.20;;;-0.80;99.90;;;;;;5092784;28;20423;-83
2023/01/20 08:02:50;;;;;;;0.30;0.30;;;-0.70;99.90;;;;;;5086490;28;20452;-82
2023/01/20 08:05:17;;;;;;;0.40;0.40;;;-0.60;99.90;;;;;;5077241;28;20462;-82
2023/01/20 08:07:49;;;;;;;0.30;0.20;;;-0.60;99.90;;;;;;5076453;28;20441;-82
2023/01/20 08:10:16;;;;;;;0.30;0.20;;;-0.50;99.90;;;;;;5075888;28;20828;-81
2023/01/20 08:12:43;;;;;;;3.50;0.50;;;-0.40;99.90;;;;;;5076374;28;20457;-83
2023/01/20 08:15:11;;;;;;;0.57;0.57;;;-0.30;99.90;;;;;;5076288;28;20457;-81
2023/01/20 08:17:38;;;;;;;0.50;0.50;;;-0.30;99.90;;;;;;5076004;28;20469;-82
2023/01/20 08:20:05;;;;;;;0.80;0.80;;;-0.20;99.90;;;;;;5076027;28;20461;-82
2023/01/20 08:22:34;;;;;;;0.30;0.30;;;-0.10;99.90;;;;;;5076094;28;20503;-81
2023/01/20 08:25:02;;;;;;;0.30;0.30;;;-0.10;99.90;;;;;;5076310;28;20473;-85
2023/01/20 08:27:29;;;;;;;0.50;0.50;;;0.00;99.90;;;;;;5079003;28;20784;-84
2023/01/20 08:29:55;;;;;;;0.40;0.40;;;0.10;99.90;;;;;;5078412;28;20811;-83
2023/01/20 08:32:22;;;;;;;0.30;0.30;;;0.20;99.90;;;;;;5078117;28;20800;-83
2023/01/20 08:34:50;;;;;;;0.63;0.63;;;0.30;99.90;;;;;;5076985;28;20513;-84
2023/01/20 08:37:16;;;;;;;1.03;0.60;;;0.40;99.90;;;;;;5076460;28;20469;-83
2023/01/20 08:39:43;;;;;;;0.40;0.40;;;0.40;99.90;;;;;;5076294;28;20452;-84
2023/01/20 08:42:11;;;;;;;0.80;0.57;;;0.50;99.90;;;;;;5076546;28;20457;-84
2023/01/20 08:44:38;;;;;;;0.30;0.30;;;0.60;99.90;;;;;;5077146;28;20465;-84
2023/01/20 08:47:05;;;;;;;0.40;0.40;;;0.60;99.90;;;;;;5076416;28;20441;-84
2023/01/20 08:49:32;;;;;;;0.40;0.40;;;0.80;99.90;;;;;;5077705;28;20493;-84
2023/01/20 08:51:59;;;;;;;0.40;0.40;;;0.80;99.90;;;;;;5076031;28;20437;-85
2023/01/20 08:54:28;;;;;;;0.37;0.37;;;0.90;99.90;;;;;;5076034;28;20465;-82
2023/01/20 08:56:55;;;;;;;0.50;0.50;;;1.00;99.90;;;;;;5079213;28;20517;-85
2023/01/20 08:59:23;;;;;;;0.40;0.40;;;1.10;99.90;;;;;;5077843;28;20453;-82
2023/01/20 09:01:50;;;;;;;0.37;0.37;;;1.20;99.90;;;;;;5078718;28;20518;-83
2023/01/20 09:04:16;;;;;;;0.40;0.40;;;1.30;99.90;;;;;;5079151;28;20453;-83
2023/01/20 09:06:45;;;;;;;0.30;0.30;;;1.40;99.90;;;;;;5079040;28;20441;-83
2023/01/20 09:09:14;;;;;;;1.13;0.40;;;1.40;99.90;;;;;;5079043;28;20449;-85
2023/01/20 09:11:43;;;;;;;0.57;0.57;;;1.50;99.90;;;;;;5079794;28;20450;-85
2023/01/20 09:14:10;;;;;;;0.33;0.33;;;1.50;99.90;;;;;;5079978;28;20461;-84
2023/01/20 09:16:38;;;;;;;0.33;0.30;;;1.50;99.90;;;;;;5079872;28;20843;-85
2023/01/20 09:19:05;;;;;;;0.30;0.20;;;1.50;99.90;;;;;;5078940;28;20492;-85
2023/01/20 09:21:32;;;;;;;0.83;0.50;;;1.50;99.90;;;;;;5080480;28;20445;-85
2023/01/20 09:23:59;;;;;;;0.47;0.47;;;1.60;99.90;;;;;;5079446;28;20441;-85
2023/01/20 09:26:26;;;;;;;0.80;0.80;;;1.60;99.90;;;;;;5079249;28;20472;-86
2023/01/20 09:28:53;;;;;;;1.53;1.20;;;1.70;99.90;;;;;;5079056;28;20468;-85
2023/01/20 09:31:20;;;;;;;0.30;0.30;;;1.70;99.90;;;;;;5078947;28;20442;-85
2023/01/20 09:33:48;;;;;;;0.37;0.30;;;1.60;99.90;;;;;;5078430;28;20954;-85
2023/01/20 09:36:15;;;;;;;0.77;0.77;;;1.70;99.90;;;;;;5078875;28;20552;-86
2023/01/20 09:44:46;;;;;;;0.30;0.30;;;1.70;99.90;;;;;;5079887;28;20441;-85
2023/01/20 09:47:25;;;;;;;0.90;0.90;;;1.70;99.90;;;;;;5080269;28;20418;-86
2023/01/20 09:53:06;;;;;;;0.30;0.30;;;1.80;99.90;;;;;;5081074;28;20412;-86
2023/01/20 09:55:46;;;;;;;0.43;0.43;;;1.80;99.90;;;;;;5078691;28;20500;-85
2023/01/20 09:58:22;;;;;;;1.90;0.60;;;1.90;99.90;;;;;;5078957;28;20540;-84
2023/01/20 10:00:55;;;;;;;1.27;1.17;;;2.00;99.90;;;;;;5079606;28;20904;-85
2023/01/20 10:03:29;;;;;;;1.43;1.43;;;2.10;99.90;;;;;;5079276;28;20777;-85
2023/01/20 10:05:59;;;;;;;0.60;0.60;;;2.10;99.90;;;;;;5078298;28;20465;-86
2023/01/20 10:08:32;;;;;;;0.87;0.60;;;2.20;99.90;;;;;;5078950;28;20883;-86
2023/01/20 10:11:05;;;;;;;0.50;0.50;;;2.20;99.90;;;;;;5077834;28;20449;-86
2023/01/20 10:13:38;;;;;;;1.00;0.50;;;2.40;99.90;;;;;;5077582;28;20433;-84
2023/01/20 10:16:11;;;;;;;0.30;0.30;;;2.50;99.90;;;;;;5074728;28;21129;-85
2023/01/20 10:18:43;;;;;;;0.40;0.40;;;2.60;99.90;;;;;;5076288;28;20503;-85
2023/01/20 10:21:17;;;;;;;0.30;0.30;;;2.70;99.90;;;;;;5079370;28;20425;-85
2023/01/20 10:23:50;;;;;;;0.50;0.40;;;2.70;99.90;;;;;;5080138;28;20439;-85
2023/01/20 10:26:21;;;;;;;0.40;0.30;;;2.90;99.90;;;;;;5080653;28;20457;-84
2023/01/20 10:28:55;;;;;;;0.30;0.30;;;3.10;99.90;;;;;;5081665;28;20464;-86
2023/01/20 10:31:26;;;;;;;0.60;0.37;;;3.30;99.90;;;;;;5083371;28;20461;-86
2023/01/20 10:33:57;;;;;;;0.40;0.40;;;3.50;99.90;;;;;;5082463;28;20498;-86
2023/01/20 10:36:28;;;;;;;1.63;0.73;;;3.60;99.90;;;;;;5082459;28;20493;-86
2023/01/20 10:39:02;;;;;;;0.43;0.43;;;3.50;99.90;;;;;;5083690;28;20429;-85
2023/01/20 10:41:37;;;;;;;2.60;0.70;;;3.40;99.90;;;;;;5083362;28;20437;-86
2023/01/20 10:44:11;;;;;;;0.40;0.30;;;3.20;99.90;;;;;;5081529;28;20451;-86
2023/01/20 10:46:54;;;;;;;1.23;1.23;;;3.10;99.90;;;;;;5081810;28;20480;-85
2023/01/20 10:49:42;;;;;;;0.60;0.50;;;3.10;99.90;;;;;;5080337;28;21004;-87
2023/01/20 10:52:27;;;;;;;0.80;0.60;;;3.20;99.90;;;;;;5082302;28;20434;-86
2023/01/20 10:55:05;;;;;;;0.40;0.30;;;3.30;99.90;;;;;;5081137;28;20465;-88
2023/01/20 10:57:32;;;;;;;0.50;0.50;;;3.30;99.90;;;;;;5080224;28;20469;-84
2023/01/20 11:00:02;;;;;;;0.40;0.30;;;3.30;99.90;;;;;;5078906;28;20944;-85
2023/01/20 11:02:33;;;;;;;0.30;0.30;;;3.20;99.90;;;;;;5077915;28;20440;-84
2023/01/20 11:05:02;;;;;;;1.23;1.13;;;3.10;99.90;;;;;;5078119;28;20518;-84
2023/01/20 11:07:33;;;;;;;1.13;1.13;;;3.10;99.90;;;;;;5078319;28;20897;-84
2023/01/20 11:10:09;;;;;;;0.50;0.47;;;3.00;99.90;;;;;;5077359;28;20913;-85
2023/01/20 11:12:39;;;;;;;0.67;0.40;;;3.00;99.90;;;;;;5076962;28;20420;-84
2023/01/20 11:15:17;;;;;;;1.27;0.80;;;3.00;99.90;;;;;;5076787;28;20461;-84
2023/01/20 11:17:44;;;;;;;0.30;0.30;;;3.00;99.90;;;;;;5076354;28;20494;-83
2023/01/20 11:20:20;;;;;;;0.33;0.33;;;3.00;99.90;;;;;;5076927;28;20452;-84
2023/01/20 11:22:49;;;;;;;0.40;0.40;;;3.00;99.90;;;;;;5076256;28;20594;-83
2023/01/20 11:25:26;;;;;;;0.77;0.50;;;2.90;99.90;;;;;;5076263;28;20465;-83
2023/01/20 11:27:53;;;;;;;0.30;0.30;;;3.00;99.90;;;;;;5076051;28;20429;-84
2023/01/20 11:30:27;;;;;;;0.30;0.30;;;3.20;99.90;;;;;;5076173;28;20458;-84
2023/01/20 11:33:18;;;;;;;0.40;0.30;;;3.20;99.90;;;;;;5075857;28;20913;-84
2023/01/20 11:36:01;;;;;;;0.73;0.53;;;3.20;99.90;;;;;;5075864;28;20465;-84
2023/01/20 11:38:31;;;;;;;0.30;0.30;;;3.30;99.90;;;;;;5076464;28;20481;-84
2023/01/20 11:40:58;;;;;;;0.50;0.50;;;3.20;99.90;;;;;;5075852;28;20450;-85
2023/01/20 11:43:32;;;;;;;0.50;0.50;;;3.20;99.90;;;;;;5075980;28;20445;-85
2023/01/20 11:46:23;;;;;;;0.60;0.50;;;3.10;99.90;;;;;;5075516;28;20465;-84
2023/01/20 11:48:50;;;;;;;4.93;0.67;;;3.00;99.90;;;;;;5075685;28;20434;-84
2023/01/20 11:51:24;;;;;;;0.30;0.30;;;3.00;99.90;;;;;;5075644;28;20854;-84
2023/01/20 11:54:05;;;;;;;0.60;0.60;;;2.90;99.90;;;;;;5075798;28;20925;-84
2023/01/20 11:56:42;;;;;;;0.40;0.40;;;2.80;99.90;;;;;;5075589;28;20476;-83
2023/01/20 11:59:21;;;;;;;0.40;0.40;;;2.70;99.90;;;;;;5075600;28;20510;-84
2023/01/20 12:02:09;;;;;;;1.40;0.70;;;2.70;99.90;;;;;;5077334;28;20444;-84
2023/01/20 12:04:57;;;;;;;0.90;0.57;;;2.70;99.90;;;;;;5082725;28;20480;-82
2023/01/20 12:07:29;;;;;;;0.90;0.60;;;2.50;99.90;;;;;;5085300;28;20472;-81
2023/01/20 12:10:03;;;;;;;0.40;0.40;;;2.60;99.90;;;;;;5088230;28;20784;-83
2023/01/20 12:12:37;;;;;;;0.40;0.40;;;2.50;99.90;;;;;;5084224;28;20458;-83
2023/01/20 12:15:10;;;;;;;0.60;0.60;;;2.50;99.90;;;;;;5075483;28;20477;-84
2023/01/20 12:17:44;;;;;;;0.80;0.57;;;2.50;99.90;;;;;;5075101;28;20469;-84
2023/01/20 12:20:18;;;;;;;0.70;0.47;;;2.50;99.90;;;;;;5074767;28;20413;-84
2023/01/20 12:22:54;;;;;;;3.13;0.67;;;2.50;99.90;;;;;;5074984;28;20441;-84
2023/01/20 12:25:26;;;;;;;1.53;0.40;;;2.40;99.90;;;;;;5075040;28;20508;-83
2023/01/20 12:27:56;;;;;;;0.40;0.30;;;2.30;99.90;;;;;;5075103;28;20436;-83
2023/01/20 12:30:42;;;;;;;1.40;0.50;;;2.30;99.90;;;;;;5074779;28;20469;-83
2023/01/20 12:33:19;;;;;;;2.50;0.60;;;2.30;99.90;;;;;;5074476;28;20434;-83
2023/01/20 12:36:05;;;;;;;0.30;0.20;;;2.30;99.90;;;;;;5074626;28;20477;-83
2023/01/20 12:38:41;;;;;;;0.60;0.40;;;2.30;99.90;;;;;;5075016;28;20465;-83
2023/01/20 12:41:16;;;;;;;0.30;0.20;;;2.30;99.90;;;;;;5073834;28;20441;-82
2023/01/20 12:43:56;;;;;;;0.50;0.30;;;2.30;99.90;;;;;;5074792;28;20414;-83
2023/01/20 12:46:38;;;;;;;0.57;0.47;;;2.30;99.90;;;;;;5074491;28;20469;-83
2023/01/20 12:49:36;;;;;;;3.77;0.60;;;2.30;99.90;;;;;;5074412;28;20505;-83
2023/01/20 12:52:26;;;;;;;0.30;0.20;;;2.30;99.90;;;;;;5074139;28;20938;-83
2023/01/20 12:55:05;;;;;;;0.30;0.30;;;2.20;99.90;;;;;;5074260;28;20476;-83
2023/01/20 12:57:56;;;;;;;0.40;0.30;;;2.30;99.90;;;;;;5073824;28;20465;-83
2023/01/20 13:00:40;;;;;;;0.40;0.30;;;2.50;99.90;;;;;;5074184;28;20804;-83
2023/01/20 13:03:54;;;;;;;0.30;0.30;;;2.70;99.90;;;;;;5074808;28;20445;-82
2023/01/20 13:06:35;;;;;;;0.30;0.30;;;2.90;99.90;;;;;;5074022;28;20469;-82
2023/01/20 13:09:18;;;;;;;0.40;0.37;;;3.10;99.90;;;;;;5073938;28;20425;-82
2023/01/20 13:11:58;;;;;;;1.00;0.40;;;3.30;99.90;;;;;;5073629;28;20442;-83
2023/01/20 13:14:39;;;;;;;0.47;0.30;;;3.40;99.90;;;;;;5073480;28;20441;-82
2023/01/20 13:17:15;;;;;;;0.33;0.27;;;3.40;99.90;;;;;;5073550;28;20894;-82